createdAt,value
2022-08-27T00:01:22.444Z,14.30
2022-08-27T00:03:50.375Z,14.20
2022-08-27T00:06:21.335Z,14.20
2022-08-27T00:08:50.275Z,14.30
2022-08-27T00:11:19.305Z,14.20
2022-08-27T00:13:47.632Z,14.20
2022-08-27T00:16:17.362Z,14.20
2022-08-27T00:18:48.078Z,14.20
2022-08-27T00:21:17.303Z,14.20
2022-08-27T00:23:45.024Z,14.20
2022-08-27T00:26:12.667Z,14.20
2022-08-27T00:28:40.637Z,14.20
2022-08-27T00:31:08.126Z,14.20
2022-08-27T00:33:39.746Z,14.20
2022-08-27T00:36:07.051Z,14.20
2022-08-27T00:38:35.231Z,14.10
2022-08-27T00:41:02.421Z,14.10
2022-08-27T00:43:42.606Z,14.20
2022-08-27T00:46:21.866Z,14.20
2022-08-27T00:48:53.781Z,14.20
2022-08-27T00:51:22.302Z,14.20
2022-08-27T00:53:50.310Z,14.20
2022-08-27T00:56:50.623Z,14.20
2022-08-27T00:59:22.121Z,14.20
2022-08-27T01:02:08.324Z,14.20
2022-08-27T01:04:37.867Z,14.10
2022-08-27T01:07:06.261Z,14.20
2022-08-27T01:09:34.553Z,14.10
2022-08-27T01:12:02.061Z,14.10
2022-08-27T01:14:29.440Z,14.00
2022-08-27T01:16:58.711Z,14.00
2022-08-27T01:19:51.390Z,14.00
2022-08-27T01:22:40.914Z,14.00
2022-08-27T01:25:14.338Z,14.00
2022-08-27T01:27:43.609Z,14.00
2022-08-27T01:30:13.675Z,14.00
2022-08-27T01:32:41.081Z,14.00
2022-08-27T01:35:11.269Z,13.90
2022-08-27T01:37:39.914Z,13.90
2022-08-27T01:40:08.667Z,13.90
2022-08-27T01:42:39.259Z,13.90
2022-08-27T01:45:09.311Z,13.80
2022-08-27T01:47:37.528Z,13.80
2022-08-27T01:50:08.652Z,13.80
2022-08-27T01:52:36.253Z,13.80
2022-08-27T01:55:06.414Z,13.80
2022-08-27T01:57:35.513Z,13.70
2022-08-27T02:00:10.139Z,13.70
2022-08-27T02:02:39.856Z,13.70
2022-08-27T02:05:07.658Z,13.80
2022-08-27T02:07:34.770Z,13.80
2022-08-27T02:10:01.951Z,13.80
2022-08-27T02:12:29.077Z,13.80
2022-08-27T02:14:56.299Z,13.80
2022-08-27T02:17:23.438Z,13.80
2022-08-27T02:19:50.607Z,13.80
2022-08-27T02:22:17.777Z,13.80
2022-08-27T02:24:45.342Z,13.80
2022-08-27T02:27:12.754Z,13.90
2022-08-27T02:29:40.285Z,13.90
2022-08-27T02:32:07.549Z,13.90
2022-08-27T02:34:44.777Z,13.90
2022-08-27T02:37:11.969Z,13.90
2022-08-27T02:39:42.064Z,14.00
2022-08-27T02:42:11.697Z,14.00
2022-08-27T02:44:39.530Z,14.00
2022-08-27T02:47:07.255Z,14.00
2022-08-27T02:49:34.474Z,14.00
2022-08-27T02:52:01.867Z,14.00
2022-08-27T02:54:28.980Z,14.00
2022-08-27T02:56:56.147Z,14.00
2022-08-27T02:59:23.561Z,14.00
2022-08-27T03:01:50.996Z,14.00
2022-08-27T03:04:20.049Z,14.10
2022-08-27T03:06:47.707Z,14.10
2022-08-27T03:09:15.055Z,14.10
2022-08-27T03:11:42.746Z,14.10
2022-08-27T03:14:09.944Z,14.10
2022-08-27T03:16:38.766Z,14.10
2022-08-27T03:19:07.386Z,14.10
2022-08-27T03:21:35.715Z,14.10
2022-08-27T03:24:09.524Z,14.10
2022-08-27T03:26:38.954Z,14.10
2022-08-27T03:29:07.960Z,14.10
2022-08-27T03:31:35.272Z,14.10
2022-08-27T03:34:07.002Z,14.00
2022-08-27T03:36:34.220Z,14.00
2022-08-27T03:39:01.443Z,14.00
2022-08-27T03:41:54.349Z,14.00
2022-08-27T03:44:21.649Z,14.00
2022-08-27T03:46:50.372Z,14.00
2022-08-27T03:49:20.554Z,14.00
2022-08-27T03:51:50.522Z,14.00
2022-08-27T03:54:18.017Z,14.00
2022-08-27T03:56:48.295Z,14.00
2022-08-27T03:59:16.048Z,14.00
2022-08-27T04:01:44.380Z,14.00
2022-08-27T04:04:13.196Z,14.00
2022-08-27T04:06:41.269Z,14.00
2022-08-27T04:09:08.784Z,14.00
2022-08-27T04:11:36.708Z,14.00
2022-08-27T04:14:06.926Z,14.00
2022-08-27T04:16:50.835Z,14.00
2022-08-27T04:19:21.246Z,14.00
2022-08-27T04:21:51.225Z,14.00
2022-08-27T04:24:18.304Z,14.00
2022-08-27T04:26:47.741Z,14.00
2022-08-27T04:29:14.934Z,14.00
2022-08-27T04:31:42.216Z,14.00
2022-08-27T04:34:09.526Z,14.00
2022-08-27T04:36:37.042Z,14.00
2022-08-27T04:39:04.337Z,13.90
2022-08-27T04:41:33.639Z,13.90
2022-08-27T04:44:06.542Z,13.90
2022-08-27T04:46:40.373Z,13.90
2022-08-27T04:49:13.710Z,13.90
2022-08-27T04:51:43.393Z,13.90
2022-08-27T04:54:11.095Z,13.90
2022-08-27T04:56:39.376Z,13.90
2022-08-27T04:59:08.922Z,13.90
2022-08-27T05:01:38.384Z,13.90
2022-08-27T05:04:06.435Z,13.90
2022-08-27T05:06:34.856Z,13.80
2022-08-27T05:09:01.978Z,13.80
2022-08-27T05:11:32.529Z,13.80
2022-08-27T05:13:59.903Z,13.80
2022-08-27T05:16:27.089Z,13.80
2022-08-27T05:18:54.279Z,13.70
2022-08-27T05:21:23.024Z,13.80
2022-08-27T05:23:51.502Z,13.80
2022-08-27T05:26:19.645Z,13.80
2022-08-27T05:28:47.068Z,13.90
2022-08-27T05:31:15.502Z,13.90
2022-08-27T05:33:43.817Z,13.90
2022-08-27T05:36:22.917Z,13.80
2022-08-27T05:38:50.550Z,13.80
2022-08-27T05:41:20.887Z,13.70
2022-08-27T05:43:50.422Z,13.70
2022-08-27T05:46:20.703Z,13.80
2022-08-27T05:48:49.011Z,13.80
2022-08-27T05:51:22.567Z,13.90
2022-08-27T05:54:09.056Z,13.90
2022-08-27T05:56:38.219Z,13.90
2022-08-27T05:59:25.247Z,14.00
2022-08-27T06:01:56.004Z,13.90
2022-08-27T06:04:24.654Z,14.00
2022-08-27T06:06:52.740Z,14.00
2022-08-27T06:09:26.449Z,14.00
2022-08-27T06:11:58.408Z,14.00
2022-08-27T06:14:26.446Z,14.00
2022-08-27T06:16:55.769Z,14.10
2022-08-27T06:19:23.875Z,14.10
2022-08-27T06:22:00.113Z,14.10
2022-08-27T06:24:29.682Z,14.10
2022-08-27T06:26:57.662Z,14.10
2022-08-27T06:29:25.339Z,14.20
2022-08-27T06:31:55.155Z,14.20
2022-08-27T06:34:22.644Z,14.20
2022-08-27T06:36:49.766Z,14.20
2022-08-27T06:39:17.204Z,14.20
2022-08-27T06:41:45.487Z,14.30
2022-08-27T06:44:15.209Z,14.30
2022-08-27T06:46:43.566Z,14.30
2022-08-27T06:49:12.370Z,14.30
2022-08-27T06:51:40.971Z,14.30
2022-08-27T06:54:10.660Z,14.30
2022-08-27T06:56:38.071Z,14.30
2022-08-27T06:59:11.666Z,14.30
2022-08-27T07:01:42.063Z,14.30
2022-08-27T07:04:13.019Z,14.30
2022-08-27T07:06:41.091Z,14.30
2022-08-27T07:09:08.856Z,14.30
2022-08-27T07:11:52.552Z,14.30
2022-08-27T07:14:22.175Z,14.20
2022-08-27T07:16:50.958Z,14.10
2022-08-27T07:19:19.762Z,14.00
2022-08-27T07:21:48.636Z,14.00
2022-08-27T07:24:15.876Z,14.00
2022-08-27T07:26:44.369Z,14.00
2022-08-27T07:29:15.154Z,14.00
2022-08-27T07:31:42.920Z,14.00
2022-08-27T07:34:11.932Z,14.00
2022-08-27T07:36:41.166Z,14.00
2022-08-27T07:39:08.788Z,13.90
2022-08-27T07:41:59.182Z,13.90
2022-08-27T07:44:28.212Z,13.90
2022-08-27T07:47:02.192Z,13.90
2022-08-27T07:49:30.243Z,13.90
2022-08-27T07:51:57.509Z,14.00
2022-08-27T07:54:25.319Z,13.90
2022-08-27T07:56:55.411Z,13.90
2022-08-27T07:59:25.111Z,13.90
2022-08-27T08:01:56.199Z,13.90
2022-08-27T08:04:24.304Z,14.00
2022-08-27T08:06:52.138Z,14.10
2022-08-27T08:09:20.571Z,14.10
2022-08-27T08:11:47.819Z,14.20
2022-08-27T08:14:14.979Z,14.20
2022-08-27T08:16:42.251Z,14.40
2022-08-27T08:19:09.889Z,14.50
2022-08-27T08:21:38.678Z,14.60
2022-08-27T08:28:18.042Z,14.60
2022-08-27T08:30:46.474Z,14.70
2022-08-27T08:33:13.930Z,14.70
2022-08-27T08:40:01.112Z,14.70
2022-08-27T08:47:19.678Z,15.00
2022-08-27T08:50:07.498Z,15.20
2022-08-27T08:57:41.530Z,15.90
2022-08-27T09:00:12.887Z,16.10
2022-08-27T09:02:46.382Z,16.00
2022-08-27T09:05:13.692Z,15.90
2022-08-27T09:08:34.442Z,16.00
2022-08-27T09:11:17.509Z,16.00
2022-08-27T09:13:55.762Z,16.00
2022-08-27T09:16:23.409Z,16.00
2022-08-27T09:18:52.402Z,16.00
2022-08-27T09:21:43.802Z,16.10
2022-08-27T09:24:25.805Z,16.30
2022-08-27T09:26:53.354Z,16.40
2022-08-27T09:29:20.764Z,16.40
2022-08-27T09:32:01.347Z,16.40
2022-08-27T09:34:36.643Z,16.40
2022-08-27T09:37:03.850Z,16.30
2022-08-27T09:39:43.641Z,16.30
2022-08-27T09:42:32.698Z,16.30
2022-08-27T09:45:00.206Z,16.20
2022-08-27T09:47:28.062Z,16.20
2022-08-27T09:50:07.943Z,16.00
2022-08-27T09:52:46.275Z,15.90
2022-08-27T09:55:14.482Z,15.80
2022-08-27T09:57:42.501Z,15.60
2022-08-27T10:00:17.321Z,15.80
2022-08-27T10:02:54.121Z,15.70
2022-08-27T10:05:36.931Z,15.70
2022-08-27T10:08:23.496Z,15.80
2022-08-27T10:10:59.946Z,15.80
2022-08-27T10:13:30.102Z,16.00
2022-08-27T10:16:31.287Z,16.00
2022-08-27T10:19:27.318Z,16.20
2022-08-27T10:22:17.656Z,16.40
2022-08-27T10:25:15.593Z,16.60
2022-08-27T10:27:49.682Z,16.70
2022-08-27T10:30:44.708Z,16.80
2022-08-27T10:33:51.693Z,16.90
2022-08-27T10:36:26.509Z,17.00
2022-08-27T10:39:06.620Z,17.00
2022-08-27T10:41:39.918Z,17.20
2022-08-27T10:44:12.941Z,17.50
2022-08-27T10:47:18.308Z,17.60
2022-08-27T10:50:07.981Z,17.50
2022-08-27T10:55:52.566Z,17.50
2022-08-27T10:59:11.271Z,17.50
2022-08-27T11:01:51.266Z,17.50
2022-08-27T11:04:25.254Z,17.30
2022-08-27T11:07:20.748Z,17.30
2022-08-27T11:10:17.661Z,17.40
2022-08-27T11:12:53.187Z,17.30
2022-08-27T11:15:26.228Z,17.20
2022-08-27T11:18:05.461Z,17.00
2022-08-27T11:20:53.895Z,16.90
2022-08-27T11:23:48.553Z,17.00
2022-08-27T11:26:15.846Z,17.00
2022-08-27T11:29:00.561Z,17.20
2022-08-27T11:31:33.850Z,17.20
2022-08-27T11:34:28.689Z,17.10
2022-08-27T11:37:03.392Z,17.00
2022-08-27T11:39:58.762Z,17.00
2022-08-27T11:42:36.250Z,17.10
2022-08-27T11:45:29.914Z,17.30
2022-08-27T11:48:03.306Z,17.60
2022-08-27T11:50:31.593Z,18.00
2022-08-27T11:53:06.034Z,18.00
2022-08-27T11:55:37.735Z,18.20
2022-08-27T11:58:05.211Z,18.20
2022-08-27T12:00:42.930Z,18.20
2022-08-27T12:03:20.748Z,18.60
2022-08-27T12:05:49.806Z,19.00
2022-08-27T12:08:22.026Z,19.50
2022-08-27T12:11:05.599Z,19.60
2022-08-27T12:13:52.707Z,19.60
2022-08-27T12:16:36.946Z,19.90
2022-08-27T12:19:07.423Z,19.90
2022-08-27T12:22:02.064Z,19.90
2022-08-27T12:24:48.931Z,19.60
2022-08-27T12:27:35.301Z,19.40
2022-08-27T12:30:07.507Z,19.20
2022-08-27T12:32:44.660Z,19.00
2022-08-27T12:35:31.959Z,19.00
2022-08-27T12:38:13.686Z,18.50
2022-08-27T12:40:50.515Z,18.20
2022-08-27T12:43:22.557Z,18.30
2022-08-27T12:45:58.518Z,18.70
2022-08-27T12:48:29.126Z,19.00
2022-08-27T12:51:09.173Z,18.80
2022-08-27T12:53:41.037Z,18.80
2022-08-27T12:56:42.902Z,19.00
2022-08-27T12:59:22.292Z,19.30
2022-08-27T13:02:14.517Z,19.40
2022-08-27T13:04:43.872Z,19.50
2022-08-27T13:07:11.147Z,19.60
2022-08-27T13:09:40.049Z,19.80
2022-08-27T13:12:16.970Z,19.70
2022-08-27T13:14:44.197Z,19.80
2022-08-27T13:17:20.070Z,19.70
2022-08-27T13:19:59.183Z,19.80
2022-08-27T13:22:39.912Z,19.60
2022-08-27T13:25:18.773Z,19.50
2022-08-27T13:28:04.290Z,19.50
2022-08-27T13:30:35.603Z,19.50
2022-08-27T13:33:06.130Z,19.50
2022-08-27T13:35:34.729Z,19.40
2022-08-27T13:38:03.879Z,18.80
2022-08-27T13:40:34.928Z,18.60
2022-08-27T13:43:11.722Z,18.80
2022-08-27T13:45:44.604Z,18.70
2022-08-27T13:48:13.365Z,18.70
2022-08-27T13:50:50.354Z,18.40
2022-08-27T13:53:42.827Z,18.30
2022-08-27T13:56:10.961Z,18.20
2022-08-27T13:58:38.266Z,18.20
2022-08-27T14:01:24.821Z,18.10
2022-08-27T14:03:57.913Z,18.00
2022-08-27T14:06:35.763Z,17.80
2022-08-27T14:09:23.238Z,17.80
2022-08-27T14:12:05.908Z,18.00
2022-08-27T14:14:41.740Z,18.10
2022-08-27T14:17:25.780Z,18.10
2022-08-27T14:20:01.807Z,18.00
2022-08-27T14:22:29.273Z,17.80
2022-08-27T14:24:56.411Z,17.70
2022-08-27T14:27:23.743Z,17.60
2022-08-27T14:29:50.950Z,17.50
2022-08-27T14:32:19.584Z,17.60
2022-08-27T14:34:46.745Z,17.40
2022-08-27T14:37:14.845Z,17.30
2022-08-27T14:39:43.590Z,17.10
2022-08-27T14:42:12.594Z,17.20
2022-08-27T14:44:40.137Z,17.30
2022-08-27T14:47:09.685Z,17.30
2022-08-27T14:49:40.800Z,17.10
2022-08-27T14:52:09.857Z,17.20
2022-08-27T14:54:37.289Z,17.10
2022-08-27T14:57:06.067Z,17.10
2022-08-27T14:59:34.389Z,17.10
2022-08-27T15:02:04.788Z,17.00
2022-08-27T15:04:32.595Z,16.90
2022-08-27T15:07:00.425Z,16.80
2022-08-27T15:09:29.206Z,16.90
2022-08-27T15:11:57.517Z,16.90
2022-08-27T15:14:28.262Z,16.90
2022-08-27T15:16:55.816Z,16.90
2022-08-27T15:19:24.648Z,16.80
2022-08-27T15:21:53.519Z,16.70
2022-08-27T15:24:26.571Z,16.70
2022-08-27T15:26:59.553Z,16.70
2022-08-27T15:29:27.293Z,16.60
2022-08-27T15:31:54.580Z,16.60
2022-08-27T15:34:21.859Z,16.60
2022-08-27T15:36:48.965Z,16.50
2022-08-27T15:39:16.135Z,16.40
2022-08-27T15:42:05.385Z,16.50
2022-08-27T15:44:31.067Z,16.50
2022-08-27T15:46:58.247Z,16.60
2022-08-27T15:49:25.696Z,16.60
2022-08-27T15:51:52.927Z,16.60
2022-08-27T15:54:21.560Z,16.60
2022-08-27T15:56:48.589Z,16.60
2022-08-27T15:59:16.915Z,16.60
2022-08-27T16:01:44.890Z,16.70
2022-08-27T16:04:12.501Z,16.70
2022-08-27T16:06:39.672Z,16.60
2022-08-27T16:09:07.052Z,16.60
2022-08-27T16:11:34.331Z,16.60
2022-08-27T16:14:01.797Z,16.50
2022-08-27T16:16:32.223Z,16.50
2022-08-27T16:19:01.726Z,16.50
2022-08-27T16:21:30.399Z,16.40
2022-08-27T16:23:57.537Z,16.40
2022-08-27T16:26:24.769Z,16.40
2022-08-27T16:28:51.859Z,16.40
2022-08-27T16:31:19.180Z,16.40
2022-08-27T16:33:47.041Z,16.50
2022-08-27T16:36:14.442Z,16.40
2022-08-27T16:38:41.841Z,16.40
2022-08-27T16:41:09.138Z,16.40
2022-08-27T16:43:36.598Z,16.30
2022-08-27T16:46:03.823Z,16.30
2022-08-27T16:48:49.551Z,16.20
2022-08-27T16:51:34.825Z,16.20
2022-08-27T16:54:04.383Z,16.30
2022-08-27T16:56:37.120Z,16.20
2022-08-27T16:59:04.974Z,16.20
2022-08-27T17:01:32.256Z,16.20
2022-08-27T17:04:14.826Z,16.30
2022-08-27T17:06:45.702Z,16.20
2022-08-27T17:09:13.250Z,16.10
2022-08-27T17:11:43.064Z,16.10
2022-08-27T17:14:12.301Z,16.20
2022-08-27T17:16:41.768Z,16.10
2022-08-27T17:19:13.317Z,16.10
2022-08-27T17:21:45.574Z,16.10
2022-08-27T17:24:13.711Z,16.00
2022-08-27T17:26:40.839Z,16.00
2022-08-27T17:29:07.952Z,16.00
2022-08-27T17:31:38.622Z,16.10
2022-08-27T17:34:07.407Z,16.10
2022-08-27T17:36:34.591Z,16.10
2022-08-27T17:39:03.023Z,16.10
2022-08-27T17:41:39.796Z,16.00
2022-08-27T17:44:21.429Z,16.00
2022-08-27T17:46:50.053Z,15.80
2022-08-27T17:49:18.484Z,15.60
2022-08-27T17:51:48.344Z,15.50
2022-08-27T17:54:29.876Z,15.40
2022-08-27T17:56:57.229Z,15.30
2022-08-27T17:59:25.209Z,15.20
2022-08-27T18:01:53.216Z,15.20
2022-08-27T18:04:21.040Z,15.20
2022-08-27T18:06:48.298Z,15.20
2022-08-27T18:09:18.375Z,15.20
2022-08-27T18:11:46.479Z,15.20
2022-08-27T18:14:18.211Z,15.20
2022-08-27T18:16:46.401Z,15.20
2022-08-27T18:19:13.812Z,15.10
2022-08-27T18:21:46.568Z,15.10
2022-08-27T18:24:15.429Z,15.00
2022-08-27T18:26:44.098Z,15.00
2022-08-27T18:29:14.019Z,15.00
2022-08-27T18:31:41.463Z,14.90
2022-08-27T18:34:08.599Z,14.90
2022-08-27T18:36:35.792Z,14.90
2022-08-27T18:39:02.885Z,14.90
2022-08-27T18:41:31.102Z,14.80
2022-08-27T18:43:59.020Z,14.80
2022-08-27T18:46:26.382Z,14.90
2022-08-27T18:48:53.533Z,14.80
2022-08-27T18:51:21.471Z,14.80
2022-08-27T18:53:49.495Z,14.80
2022-08-27T18:56:18.933Z,14.80
2022-08-27T18:58:47.692Z,14.80
2022-08-27T19:01:19.485Z,14.80
2022-08-27T19:03:50.092Z,14.80
2022-08-27T19:06:18.591Z,14.80
2022-08-27T19:08:46.250Z,14.70
2022-08-27T19:11:13.852Z,14.70
2022-08-27T19:13:42.014Z,14.60
2022-08-27T19:16:14.510Z,14.60
2022-08-27T19:18:42.416Z,14.50
2022-08-27T19:21:09.693Z,14.50
2022-08-27T19:23:37.622Z,14.40
2022-08-27T19:26:05.503Z,14.40
2022-08-27T19:28:40.216Z,14.30
2022-08-27T19:31:08.525Z,14.30
2022-08-27T19:33:36.802Z,14.30
2022-08-27T19:36:05.795Z,14.40
2022-08-27T19:38:34.251Z,14.40
2022-08-27T19:41:02.756Z,14.40
2022-08-27T19:43:29.866Z,14.40
2022-08-27T19:45:58.498Z,14.40
2022-08-27T19:48:25.911Z,14.40
2022-08-27T19:50:53.264Z,14.30
2022-08-27T19:53:20.650Z,14.30
2022-08-27T19:55:48.507Z,14.30
2022-08-27T19:58:17.789Z,14.20
2022-08-27T20:00:45.644Z,14.20
2022-08-27T20:03:12.983Z,14.20
2022-08-27T20:05:40.758Z,14.20
2022-08-27T20:08:08.179Z,14.20
2022-08-27T20:10:36.493Z,14.20
2022-08-27T20:13:05.429Z,14.20
2022-08-27T20:15:34.008Z,14.20
2022-08-27T20:18:02.317Z,14.20
2022-08-27T20:20:30.372Z,14.10
2022-08-27T20:22:59.461Z,14.10
2022-08-27T20:25:26.724Z,14.10
2022-08-27T20:27:53.937Z,14.10
2022-08-27T20:30:23.538Z,14.00
2022-08-27T20:32:51.076Z,14.00
2022-08-27T20:35:19.570Z,14.00
2022-08-27T20:37:47.044Z,14.10
2022-08-27T20:40:22.952Z,14.10
2022-08-27T20:42:50.822Z,14.10
2022-08-27T20:45:18.906Z,14.10
2022-08-27T20:47:50.153Z,14.10
2022-08-27T20:50:19.396Z,14.10
2022-08-27T20:52:46.998Z,14.10
2022-08-27T20:55:15.751Z,14.10
2022-08-27T20:58:06.491Z,14.20
2022-08-27T21:00:41.917Z,14.20
2022-08-27T21:03:14.146Z,14.10
2022-08-27T21:05:43.761Z,14.10
2022-08-27T21:08:11.070Z,14.10
2022-08-27T21:10:45.882Z,14.10
2022-08-27T21:13:13.916Z,14.10
2022-08-27T21:15:40.992Z,14.10
2022-08-27T21:18:08.544Z,14.10
2022-08-27T21:20:35.786Z,14.10
2022-08-27T21:23:02.942Z,14.20
2022-08-27T21:25:30.009Z,14.20
2022-08-27T21:27:57.883Z,14.20
2022-08-27T21:30:26.342Z,14.20
2022-08-27T21:32:57.739Z,14.20
2022-08-27T21:35:27.886Z,14.10
2022-08-27T21:37:56.663Z,14.10
2022-08-27T21:40:25.332Z,14.10
2022-08-27T21:42:53.863Z,14.10
2022-08-27T21:45:21.233Z,14.10
2022-08-27T21:47:48.541Z,14.10
2022-08-27T21:50:15.617Z,14.10
2022-08-27T21:52:42.761Z,14.10
2022-08-27T21:55:10.387Z,14.10
2022-08-27T21:57:37.526Z,14.10
2022-08-27T22:00:22.473Z,14.10
2022-08-27T22:02:50.480Z,14.10
2022-08-27T22:05:18.138Z,14.10
2022-08-27T22:07:45.219Z,14.10
2022-08-27T22:10:12.467Z,14.10
2022-08-27T22:12:39.687Z,14.10
2022-08-27T22:15:08.597Z,14.20
2022-08-27T22:17:35.872Z,14.20
2022-08-27T22:20:05.787Z,14.20
2022-08-27T22:22:33.754Z,14.20
2022-08-27T22:25:01.022Z,14.20
2022-08-27T22:27:28.295Z,14.20
2022-08-27T22:29:55.374Z,14.20
2022-08-27T22:32:22.562Z,14.20
2022-08-27T22:34:49.727Z,14.20
2022-08-27T22:37:17.294Z,14.20
2022-08-27T22:39:44.387Z,14.20
2022-08-27T22:42:13.026Z,14.20
2022-08-27T22:44:44.763Z,14.20
2022-08-27T22:47:11.867Z,14.20
2022-08-27T22:49:39.056Z,14.20
2022-08-27T22:52:06.221Z,14.20
2022-08-27T22:54:34.090Z,14.20
2022-08-27T22:57:01.226Z,14.20
2022-08-27T22:59:28.372Z,14.10
2022-08-27T23:01:56.072Z,14.10
2022-08-27T23:04:39.231Z,14.10
2022-08-27T23:07:10.965Z,14.10
2022-08-27T23:09:38.042Z,14.10
2022-08-27T23:12:08.836Z,14.00
2022-08-27T23:14:36.397Z,14.00
2022-08-27T23:17:04.515Z,14.00
2022-08-27T23:19:37.963Z,14.00
2022-08-27T23:22:07.083Z,14.00
2022-08-27T23:24:54.942Z,13.90
2022-08-27T23:27:31.235Z,13.80
2022-08-27T23:29:59.827Z,13.80
2022-08-27T23:32:27.032Z,13.70
2022-08-27T23:34:54.952Z,13.70
2022-08-27T23:37:22.736Z,13.60
2022-08-27T23:39:49.890Z,13.60
2022-08-27T23:42:18.695Z,13.60
2022-08-27T23:44:46.849Z,13.60
2022-08-27T23:47:13.986Z,13.60
2022-08-27T23:49:43.350Z,13.70
2022-08-27T23:52:11.727Z,13.70
2022-08-27T23:54:39.224Z,13.70
2022-08-27T23:57:06.319Z,13.70
2022-08-27T23:59:33.424Z,13.80
